Time;durP1;ratioP1;P1;durP2;ratioP2;P2;SDS_P1;SDS_P2;PMS_P1;PMS_P2;Temp;Humidity;BMP_temperature;BMP_pressure;BME280_temperature;BME280_humidity;BME280_pressure;Samples;Min_cycle;Max_cycle;Signal;HPM_P1;HPM_P2
2022/05/24 00:00:29;;;;;;;0.70;0.30;;;14.20;1.40;;;15.24;100.00;94429.37;646070;216;31893;-76
2022/05/24 00:03:22;;;;;;;0.70;0.40;;;14.20;1.40;;;15.26;100.00;94430.67;650343;216;42178;-75
2022/05/24 00:06:06;;;;;;;0.40;0.30;;;14.30;1.40;;;15.27;100.00;94433.98;621279;222;31863;-76
2022/05/24 00:08:53;;;;;;;1.60;1.00;;;14.30;1.40;;;15.35;100.00;94433.67;641614;216;31973;-75
2022/05/24 00:11:38;;;;;;;0.82;0.60;;;14.30;1.40;;;15.32;100.00;94430.73;621078;226;31842;-75
2022/05/24 00:17:25;;;;;;;0.47;0.33;;;14.30;1.40;;;15.31;100.00;94434.42;622353;226;32832;-76
2022/05/24 00:20:07;;;;;;;0.40;0.30;;;14.30;1.40;;;15.30;100.00;94427.22;622686;222;32067;-75
2022/05/24 00:22:49;;;;;;;0.60;0.30;;;14.30;1.40;;;15.30;100.00;94428.36;648644;212;31479;-77
2022/05/24 00:25:31;;;;;;;0.50;0.40;;;14.30;1.40;;;15.30;100.00;94426.97;621705;222;43229;-75
2022/05/24 00:28:13;;;;;;;0.80;0.60;;;14.30;1.40;;;15.28;100.00;94427.72;622493;225;31735;-77
2022/05/24 00:30:55;;;;;;;0.80;0.60;;;14.30;1.40;;;15.28;100.00;94427.14;620943;222;31967;-75
2022/05/24 00:35:50;;;;;;;1.95;0.50;;;14.30;1.40;;;15.26;100.00;94435.67;622397;226;33446;-75
2022/05/24 00:38:36;;;;;;;0.85;0.57;;;14.30;1.40;;;15.29;100.00;94440.41;648453;212;31500;-75
2022/05/24 00:41:27;;;;;;;0.70;0.47;;;14.30;1.40;;;15.29;100.00;94436.27;623518;222;31796;-75
2022/05/24 00:44:20;;;;;;;0.60;0.40;;;14.20;1.40;;;15.29;100.00;94428.90;647357;216;31463;-77
2022/05/24 00:47:10;;;;;;;0.40;0.30;;;14.20;1.40;;;15.32;100.00;94433.97;622763;222;31803;-75
2022/05/24 00:49:52;;;;;;;0.80;0.60;;;14.20;1.40;;;15.30;100.00;94439.18;647964;212;31477;-75
2022/05/24 00:52:40;;;;;;;1.02;0.50;;;14.20;1.40;;;15.27;100.00;94431.81;619950;222;31886;-77
2022/05/24 00:55:22;;;;;;;1.10;0.90;;;14.20;1.40;;;15.25;100.00;94432.52;647299;216;31498;-74
2022/05/24 00:58:13;;;;;;;1.10;0.40;;;14.20;1.40;;;15.20;100.00;94428.53;645971;212;34492;-75
2022/05/24 01:00:55;;;;;;;0.40;0.30;;;14.20;1.40;;;15.19;100.00;94425.46;647696;212;31597;-76
2022/05/24 01:03:37;;;;;;;0.70;0.60;;;14.20;1.40;;;15.18;100.00;94425.34;620027;222;32775;-75
2022/05/24 01:06:18;;;;;;;0.60;0.50;;;14.10;1.40;;;15.18;100.00;94430.13;648242;216;31488;-75
2022/05/24 01:09:02;;;;;;;0.55;0.43;;;14.10;1.40;;;15.14;100.00;94422.61;640719;212;42353;-76
2022/05/24 01:11:50;;;;;;;0.83;0.43;;;14.10;1.40;;;15.12;100.00;94430.72;651433;212;31662;-75
2022/05/24 01:14:33;;;;;;;0.68;0.68;;;14.10;1.40;;;15.09;100.00;94428.06;646106;216;31492;-77
2022/05/24 01:19:57;;;;;;;0.50;0.30;;;14.00;1.40;;;15.03;100.00;94417.03;623773;226;32028;-75
2022/05/24 01:22:52;;;;;;;0.60;0.40;;;13.90;1.40;;;15.02;100.00;94405.78;620428;226;42472;-77
2022/05/24 01:26:17;;;;;;;0.50;0.40;;;13.90;1.40;;;14.95;100.00;94402.97;650936;212;32400;-77
2022/05/24 01:29:00;;;;;;;0.50;0.45;;;13.90;1.40;;;14.95;100.00;94400.76;646392;216;40460;-76
2022/05/24 01:38:49;;;;;;;0.60;0.40;;;13.80;1.40;;;14.87;100.00;94404.22;651286;212;31632;-76
2022/05/24 01:41:40;;;;;;;1.00;1.00;;;13.80;1.40;;;14.87;100.00;94402.70;622365;222;33231;-75
2022/05/24 01:44:58;;;;;;;0.88;0.50;;;13.80;1.40;;;14.85;100.00;94405.87;648293;216;31533;-78
2022/05/24 01:47:39;;;;;;;0.60;0.50;;;13.90;1.40;;;14.87;100.00;94404.47;647459;216;31478;-78
2022/05/24 01:50:21;;;;;;;0.70;0.40;;;13.80;1.40;;;14.84;100.00;94404.23;650154;215;31577;-78
2022/05/24 01:53:09;;;;;;;0.70;0.30;;;13.80;1.40;;;14.83;100.00;94406.23;647313;216;42732;-77
2022/05/24 01:55:53;;;;;;;0.70;0.68;;;13.80;1.40;;;14.83;100.00;94406.11;620342;222;42499;-77
2022/05/24 01:58:38;;;;;;;1.23;0.73;;;13.80;1.40;;;14.84;100.00;94399.23;649640;212;42027;-75
2022/05/24 02:01:32;;;;;;;0.45;0.35;;;13.80;1.40;;;14.83;100.00;94401.57;648239;216;31553;-75
2022/05/24 02:04:16;;;;;;;1.20;0.80;;;13.80;1.40;;;14.82;100.00;94395.02;650498;216;31481;-78
2022/05/24 02:07:07;;;;;;;1.20;0.50;;;13.80;1.40;;;14.79;100.00;94406.16;652057;216;40221;-77
2022/05/24 02:09:50;;;;;;;0.60;0.40;;;13.80;1.40;;;14.78;100.00;94401.86;622342;224;31891;-75
2022/05/24 02:12:46;;;;;;;0.88;0.60;;;13.80;1.40;;;14.76;100.00;94393.68;651599;212;42186;-77
2022/05/24 02:15:35;;;;;;;2.80;0.88;;;13.70;1.40;;;14.76;100.00;94388.03;621022;222;31995;-77
2022/05/24 02:18:17;;;;;;;1.20;0.60;;;13.70;1.40;;;14.74;100.00;94387.22;648583;212;42222;-77
2022/05/24 02:21:05;;;;;;;1.30;0.60;;;13.70;1.40;;;14.72;100.00;94379.28;645808;212;42105;-77
2022/05/24 02:23:50;;;;;;;0.60;0.57;;;13.70;1.40;;;14.72;100.00;94381.24;651555;212;35749;-77
2022/05/24 02:26:31;;;;;;;0.40;0.20;;;13.70;1.40;;;14.71;100.00;94380.52;625875;222;42479;-76
2022/05/24 02:29:17;;;;;;;1.00;0.70;;;13.70;1.40;;;14.69;100.00;94374.76;622740;222;31827;-76
2022/05/24 02:35:51;;;;;;;0.50;0.40;;;13.70;1.40;;;14.69;100.00;94369.14;646890;216;31639;-77
2022/05/24 02:38:33;;;;;;;1.70;0.40;;;13.70;1.40;;;14.68;100.00;94371.98;647479;212;37656;-77
2022/05/24 02:41:42;;;;;;;0.93;0.90;;;13.70;1.40;;;14.68;100.00;94364.03;647490;216;42180;-77
2022/05/24 02:44:24;;;;;;;0.90;0.60;;;13.70;1.40;;;14.65;100.00;94361.26;648197;216;31554;-77
2022/05/24 02:47:11;;;;;;;0.70;0.60;;;13.70;1.40;;;14.69;100.00;94361.64;650244;211;31598;-75
2022/05/24 02:49:55;;;;;;;0.80;0.70;;;13.70;1.40;;;14.70;100.00;94363.69;646480;216;31522;-76
2022/05/24 02:52:47;;;;;;;0.40;0.40;;;13.70;1.40;;;14.72;100.00;94358.86;652276;213;42148;-76
2022/05/24 02:55:38;;;;;;;0.50;0.40;;;13.70;1.40;;;14.71;100.00;94355.55;651517;214;31522;-76
2022/05/24 02:58:27;;;;;;;0.60;0.40;;;13.70;1.40;;;14.70;100.00;94353.70;652421;212;31740;-75
2022/05/24 03:01:12;;;;;;;1.55;0.50;;;13.70;1.40;;;14.71;100.00;94355.75;648014;212;31543;-79
2022/05/24 03:03:54;;;;;;;1.00;0.70;;;13.70;1.40;;;14.75;100.00;94360.37;648458;216;31490;-78
2022/05/24 03:19:51;;;;;;;3.62;1.62;;;13.70;1.40;;;14.68;100.00;94368.74;644668;214;32208;-76
2022/05/24 03:22:33;;;;;;;1.20;0.40;;;13.60;1.40;;;14.67;100.00;94366.25;624396;222;31854;-76
2022/05/24 03:25:21;;;;;;;0.50;0.30;;;13.70;1.40;;;14.66;100.00;94364.73;647644;212;33219;-78
2022/05/24 03:28:15;;;;;;;0.40;0.20;;;13.70;1.40;;;14.65;100.00;94364.16;647134;214;31499;-77
2022/05/24 03:31:00;;;;;;;1.17;1.08;;;13.70;1.40;;;14.63;100.00;94360.81;650325;212;31457;-77
2022/05/24 03:35:58;;;;;;;0.70;0.60;;;13.70;1.40;;;14.63;100.00;94354.96;617413;224;43108;-78
2022/05/24 03:38:39;;;;;;;1.20;0.90;;;13.70;1.40;;;14.65;100.00;94351.77;647546;216;40702;-78
2022/05/24 03:41:24;;;;;;;0.70;0.40;;;13.70;1.40;;;14.67;100.00;94349.18;633244;222;31607;-89
2022/05/24 03:44:07;;;;;;;0.50;0.40;;;13.70;1.40;;;14.68;100.00;94357.16;624846;226;42672;-76
2022/05/24 03:46:49;;;;;;;0.70;0.40;;;13.70;1.40;;;14.68;100.00;94357.94;650029;216;31773;-77
2022/05/24 03:49:31;;;;;;;0.60;0.60;;;13.70;1.40;;;14.72;100.00;94354.52;650531;213;42149;-76
2022/05/24 03:52:19;;;;;;;0.50;0.30;;;13.80;1.40;;;14.75;100.00;94356.60;651609;212;31520;-76
2022/05/24 03:55:07;;;;;;;0.80;0.50;;;13.80;1.40;;;14.74;100.00;94361.27;646796;212;35983;-78
2022/05/24 03:58:00;;;;;;;0.50;0.30;;;13.80;1.40;;;14.72;100.00;94360.29;653573;212;31444;-78
2022/05/24 04:00:44;;;;;;;0.45;0.45;;;13.80;1.40;;;14.75;100.00;94357.75;646846;216;42197;-77
2022/05/24 04:03:26;;;;;;;1.20;0.30;;;13.80;1.40;;;14.77;100.00;94363.77;648445;216;32518;-77
2022/05/24 04:16:59;;;;;;;0.50;0.40;;;13.80;1.40;;;14.79;100.00;94364.28;623358;215;32067;-77
2022/05/24 04:19:58;;;;;;;0.50;0.30;;;13.80;1.40;;;14.82;100.00;94359.08;621532;225;31889;-77
2022/05/24 04:23:25;;;;;;;;;;;;;;;;;;;;;
2022/05/24 04:26:17;;;;;;;0.70;0.60;;;13.80;1.40;;;14.73;100.00;94376.09;622886;222;31802;-78
2022/05/24 04:29:05;;;;;;;0.40;0.30;;;13.70;1.40;;;14.69;100.00;94378.27;647052;216;42115;-79
2022/05/24 04:36:07;;;;;;;;;;;13.70;1.40;;;14.60;100.00;94383.20;629964;222;24735;-77
2022/05/24 04:38:55;;;;;;;;;;;13.70;1.40;;;14.60;100.00;94387.17;636537;220;24901;-77
2022/05/24 04:44:41;;;;;;;;;;;13.70;1.40;;;14.57;100.00;94392.20;650851;215;24947;-77
2022/05/24 04:47:28;;;;;;;;;;;13.60;1.40;;;14.57;100.00;94390.28;637301;211;24792;-77
2022/05/24 04:50:13;;;;;;;;;;;13.60;1.40;;;14.59;100.00;94397.60;655321;216;24726;-79
2022/05/24 04:53:09;;;;;;;;;;;13.60;1.40;;;14.58;100.00;94401.98;638278;209;24837;-75
2022/05/24 04:55:52;;;;;;;;;;;13.60;1.40;;;14.59;100.00;94404.15;655019;216;24763;-80
2022/05/24 04:58:34;;;;;;;;;;;13.60;1.40;;;14.60;100.00;94401.37;653146;216;25003;-80
2022/05/24 05:01:16;;;;;;;;;;;13.60;1.40;;;14.63;100.00;94400.88;653747;212;24837;-81
2022/05/24 05:04:00;;;;;;;;;;;13.60;1.40;;;14.66;100.00;94399.48;650918;215;24823;-81
2022/05/24 05:17:12;;;;;;;;;;;13.70;1.40;;;14.72;100.00;94396.02;653952;212;24852;-79
2022/05/24 05:19:59;;;;;;;;;;;13.70;1.40;;;14.73;100.00;94398.84;654919;216;24729;-79
2022/05/24 05:35:58;;;;;;;1.50;0.75;;;13.80;1.40;;;14.78;100.00;94400.35;623647;222;31986;-77
2022/05/24 05:38:47;;;;;;;0.80;0.47;;;13.80;1.40;;;14.76;100.00;94401.50;619454;226;32706;-79
2022/05/24 05:44:08;;;;;;;3.40;0.40;;;13.80;1.40;;;14.93;100.00;94405.67;646303;216;32033;-76
2022/05/24 05:46:49;;;;;;;0.40;0.20;;;13.90;1.40;;;14.97;100.00;94407.05;647334;216;31532;-76
2022/05/24 05:49:31;;;;;;;1.20;0.60;;;14.00;1.40;;;15.06;100.00;94409.64;647107;212;42096;-77
2022/05/24 05:52:16;;;;;;;0.60;0.45;;;14.00;1.40;;;15.19;100.00;94415.67;647363;216;31589;-79
2022/05/24 05:57:38;;;;;;;0.80;0.50;;;14.20;1.40;;;15.29;100.00;94424.23;646565;216;31474;-77
2022/05/24 06:00:22;;;;;;;0.62;0.40;;;14.10;1.40;;;15.42;100.00;94428.98;646125;212;31568;-78
2022/05/24 06:03:04;;;;;;;1.40;0.40;;;14.30;1.40;;;15.57;100.00;94427.27;618153;222;31845;-76
2022/05/24 06:05:46;;;;;;;0.70;0.40;;;14.40;1.40;;;15.70;100.00;94432.14;647340;216;31460;-76
2022/05/24 06:08:28;;;;;;;0.50;0.30;;;14.50;1.40;;;15.64;100.00;94434.63;616728;226;32006;-76
2022/05/24 06:11:09;;;;;;;1.00;0.90;;;14.40;1.40;;;15.63;100.00;94439.84;645173;216;31527;-78
2022/05/24 06:13:54;;;;;;;0.60;0.30;;;14.50;1.40;;;15.64;100.00;94442.88;645725;216;31665;-77
2022/05/24 06:16:36;;;;;;;0.60;0.50;;;14.40;1.40;;;15.44;100.00;94452.20;646565;212;31730;-76
2022/05/24 06:19:18;;;;;;;0.50;0.40;;;14.30;1.40;;;15.38;100.00;94463.66;645602;212;31496;-76
2022/05/24 06:21:59;;;;;;;1.00;0.50;;;14.40;1.40;;;15.34;100.00;94465.06;646935;212;31465;-76
2022/05/24 06:24:43;;;;;;;5.53;0.62;;;14.30;1.40;;;15.23;100.00;94464.28;645873;212;31480;-76
2022/05/24 06:27:23;;;;;;;1.00;0.60;;;14.40;1.40;;;15.21;100.00;94464.28;645222;216;31493;-76
2022/05/24 06:30:06;;;;;;;1.42;0.60;;;14.30;1.40;;;15.19;100.00;94465.48;646273;212;31578;-75
2022/05/24 06:32:48;;;;;;;0.60;0.60;;;14.30;1.40;;;15.18;100.00;94459.01;646812;216;32248;-76
2022/05/24 06:35:51;;;;;;;0.40;0.40;;;14.30;1.40;;;15.24;100.00;94459.23;646100;212;31595;-76
2022/05/24 06:38:33;;;;;;;2.97;1.10;;;14.30;1.40;;;15.20;100.00;94462.69;645259;216;31536;-76
2022/05/24 06:41:14;;;;;;;0.50;0.40;;;14.30;1.40;;;15.15;100.00;94470.77;645738;212;31497;-76
2022/05/24 06:43:56;;;;;;;0.60;0.60;;;14.20;1.40;;;15.22;100.00;94469.73;646020;216;31535;-77
2022/05/24 06:46:38;;;;;;;0.70;0.50;;;14.20;1.40;;;15.16;100.00;94468.67;646952;216;31450;-76
2022/05/24 06:49:20;;;;;;;0.60;0.52;;;14.30;1.40;;;15.02;100.00;94472.69;645214;212;31492;-77
2022/05/24 06:52:01;;;;;;;0.80;0.77;;;14.10;1.40;;;14.98;100.00;94480.88;618047;225;31812;-76
2022/05/24 06:54:43;;;;;;;0.80;0.40;;;14.10;1.40;;;14.90;100.00;94485.31;630676;221;31676;-77
2022/05/24 06:57:25;;;;;;;0.60;0.40;;;14.00;1.40;;;14.96;100.00;94487.14;646513;212;32082;-76
2022/05/24 07:03:00;;;;;;;0.60;0.40;;;14.00;1.40;;;15.03;100.00;94499.14;646612;216;42221;-76
2022/05/24 07:05:42;;;;;;;0.60;0.50;;;14.00;1.40;;;15.03;100.00;94497.33;646296;216;31569;-77
2022/05/24 07:08:23;;;;;;;0.50;0.50;;;14.10;1.40;;;15.05;100.00;94499.17;644548;216;31759;-77
2022/05/24 07:11:08;;;;;;;0.40;0.40;;;14.20;1.40;;;15.00;100.00;94510.52;646977;212;31638;-77
2022/05/24 07:13:49;;;;;;;;;;;14.10;1.40;;;14.92;100.00;94514.09;652083;216;25385;-76
2022/05/24 07:16:31;;;;;;;;;;;14.00;1.40;;;14.88;100.00;94521.87;653023;212;24817;-76
2022/05/24 07:19:12;;;;;;;;;;;14.00;1.40;;;14.82;100.00;94523.35;648661;216;24871;-76
2022/05/24 07:21:53;;;;;;;;;;;14.00;1.40;;;14.80;100.00;94530.19;654384;216;24907;-76
2022/05/24 07:24:38;;;;;;;;;;;13.90;1.40;;;14.78;100.00;94539.48;654143;216;24838;-77
2022/05/24 07:27:19;;;;;;;;;;;13.90;1.40;;;14.69;100.00;94548.12;650531;216;24874;-77
2022/05/24 07:30:00;;;;;;;;;;;13.70;1.40;;;14.58;100.00;94548.80;647092;216;25011;-77
2022/05/24 07:32:42;;;;;;;;;;;13.60;1.40;;;14.38;100.00;94558.11;649161;217;24919;-76
2022/05/24 07:35:52;;;;;;;1.60;0.80;;;13.40;1.40;;;14.22;100.00;94563.59;646999;212;32003;-76
2022/05/24 07:38:43;;;;;;;0.50;0.40;;;13.30;1.40;;;14.12;100.00;94553.44;646123;212;32707;-76
2022/05/24 07:46:56;;;;;;;0.50;0.40;;;13.20;1.40;;;14.15;100.00;94556.54;646526;216;31552;-75
2022/05/24 07:49:37;;;;;;;0.65;0.40;;;13.20;1.40;;;14.12;100.00;94570.86;647518;216;41127;-76
2022/05/24 07:52:19;;;;;;;0.73;0.60;;;13.20;1.40;;;14.12;100.00;94578.91;646463;216;38485;-75
2022/05/24 07:55:00;;;;;;;0.52;0.40;;;13.20;1.40;;;14.10;100.00;94578.00;619696;226;33879;-75
2022/05/24 07:57:42;;;;;;;0.40;0.30;;;13.20;1.40;;;14.11;100.00;94588.59;647614;216;31614;-75
2022/05/24 08:00:24;;;;;;;0.50;0.40;;;13.20;1.40;;;14.15;100.00;94596.73;618667;226;32079;-75
2022/05/24 08:03:06;;;;;;;0.70;0.62;;;13.30;1.40;;;14.18;100.00;94593.84;646210;216;31858;-76
2022/05/24 08:05:47;;;;;;;0.60;0.40;;;13.40;1.40;;;14.25;100.00;94597.23;619377;226;35348;-75
2022/05/24 08:08:35;;;;;;;0.50;0.40;;;13.40;1.40;;;14.32;100.00;94603.83;632832;220;31883;-78
2022/05/24 08:11:23;;;;;;;0.47;0.30;;;13.40;1.40;;;14.51;100.00;94607.13;646198;216;42154;-75
2022/05/24 08:14:06;;;;;;;0.90;0.47;;;13.60;1.40;;;14.60;100.00;94605.72;647486;216;31593;-75
2022/05/24 08:16:46;;;;;;;0.80;0.60;;;13.60;1.40;;;14.59;100.00;94606.91;618271;226;38503;-75
2022/05/24 08:19:28;;;;;;;0.40;0.30;;;13.60;1.40;;;14.45;100.00;94620.26;645740;216;31511;-75
2022/05/24 08:22:10;;;;;;;0.40;0.30;;;13.40;1.40;;;14.48;100.00;94620.64;647325;212;42116;-75
2022/05/24 08:24:51;;;;;;;0.93;0.40;;;13.50;1.40;;;14.29;100.00;94639.53;648261;216;31638;-74
2022/05/24 08:27:39;;;;;;;0.60;0.50;;;13.30;1.40;;;14.16;100.00;94639.27;642866;215;31510;-77
2022/05/24 08:30:23;;;;;;;0.50;0.40;;;13.20;1.40;;;14.04;100.00;94639.34;646526;216;42117;-74
2022/05/24 08:35:52;;;;;;;0.40;0.40;;;13.30;1.40;;;14.21;100.00;94625.96;646851;216;31474;-74
2022/05/24 08:38:34;;;;;;;0.70;0.30;;;13.30;1.40;;;14.29;100.00;94625.22;646907;216;32278;-74
2022/05/24 08:41:17;;;;;;;0.80;0.60;;;13.40;1.40;;;14.23;100.00;94625.64;646433;212;32200;-75
2022/05/24 08:48:22;;;;;;;0.70;0.70;;;13.30;1.40;;;14.38;100.00;94628.10;646818;212;31624;-75
2022/05/24 08:49:35;;;;;;;0.50;0.30;;;13.30;1.40;;;14.23;100.00;94633.00;645550;216;31505;-74
2022/05/24 08:52:16;;;;;;;1.80;0.60;;;13.30;1.40;;;14.23;100.00;94627.32;646986;216;42675;-74
2022/05/24 08:54:58;;;;;;;1.10;0.45;;;13.30;1.40;;;14.11;100.00;94629.24;647771;216;31897;-74
2022/05/24 08:57:44;;;;;;;0.50;0.40;;;13.20;1.40;;;14.15;100.00;94630.63;646686;216;31477;-74
2022/05/24 09:00:30;;;;;;;0.60;0.37;;;13.20;1.40;;;14.13;100.00;94627.98;615434;225;31914;-74
2022/05/24 09:03:11;;;;;;;0.60;0.60;;;13.20;1.40;;;14.10;100.00;94621.67;645480;216;31481;-74
2022/05/24 09:05:57;;;;;;;0.60;0.40;;;13.20;1.40;;;14.13;100.00;94619.75;646130;216;42670;-74
2022/05/24 09:08:47;;;;;;;0.95;0.32;;;13.30;1.40;;;14.32;100.00;94620.76;643156;216;31666;-74
2022/05/24 09:14:24;;;;;;;0.45;0.35;;;13.40;1.40;;;14.57;100.00;94619.30;646221;212;32133;-76
2022/05/24 09:17:30;;;;;;;0.60;0.30;;;13.50;1.40;;;14.78;100.00;94620.45;646049;216;31468;-75
2022/05/24 09:20:28;;;;;;;0.40;0.40;;;13.70;1.40;;;14.71;100.00;94623.74;644800;212;31474;-75
2022/05/24 09:23:19;;;;;;;0.40;0.20;;;13.60;1.40;;;14.76;100.00;94628.22;646780;212;32161;-74
2022/05/24 09:26:03;;;;;;;1.20;0.60;;;13.60;1.40;;;14.64;100.00;94636.91;647019;216;31520;-74
2022/05/24 09:28:56;;;;;;;0.62;0.35;;;13.50;1.40;;;14.56;100.00;94641.48;619453;222;31875;-74
2022/05/24 09:31:41;;;;;;;0.40;0.20;;;13.50;1.40;;;14.50;100.00;94637.78;645349;216;34092;-75
2022/05/24 09:35:52;;;;;;;0.45;0.40;;;13.50;1.40;;;14.70;100.00;94639.87;644840;216;32060;-74
2022/05/24 09:38:35;;;;;;;1.80;0.80;;;13.70;1.40;;;14.53;100.00;94642.66;648024;212;31514;-75
2022/05/24 09:41:17;;;;;;;0.40;0.40;;;13.50;1.40;;;14.49;100.00;94653.20;642249;215;31513;-75
2022/05/24 09:44:06;;;;;;;0.40;0.40;;;13.50;1.40;;;14.43;100.00;94647.43;646549;216;31549;-75
2022/05/24 09:46:47;;;;;;;0.40;0.30;;;13.50;1.40;;;14.40;100.00;94650.89;646751;216;31475;-75
2022/05/24 09:49:28;;;;;;;2.90;0.40;;;13.50;1.40;;;14.58;100.00;94653.80;646363;216;31477;-75
2022/05/24 09:52:12;;;;;;;0.50;0.50;;;13.60;1.40;;;14.56;100.00;94652.08;645758;212;31562;-75
2022/05/24 09:54:56;;;;;;;0.50;0.30;;;13.70;1.40;;;14.49;100.00;94652.52;647457;216;31997;-75
2022/05/24 09:57:44;;;;;;;0.70;0.60;;;13.50;1.40;;;14.43;100.00;94654.25;647929;212;31460;-79
2022/05/24 10:00:32;;;;;;;0.40;0.30;;;13.30;1.40;;;14.48;100.00;94652.59;646721;216;31522;-75
2022/05/24 10:03:13;;;;;;;0.70;0.50;;;13.30;1.40;;;14.67;100.00;94659.39;646333;216;31475;-76
2022/05/24 10:06:10;;;;;;;0.60;0.30;;;13.60;1.40;;;14.53;100.00;94659.96;646628;212;31527;-77
2022/05/24 10:08:58;;;;;;;0.40;0.20;;;13.30;1.40;;;14.60;100.00;94661.91;616241;226;32070;-75
2022/05/24 10:11:44;;;;;;;0.90;0.80;;;13.30;1.40;;;14.85;100.00;94664.95;645850;216;31496;-75
2022/05/24 10:14:38;;;;;;;0.50;0.30;;;13.70;1.40;;;15.13;100.00;94667.52;647748;216;31689;-75
2022/05/24 10:17:41;;;;;;;0.80;0.40;;;14.00;1.40;;;15.52;100.00;94680.59;617605;226;32401;-74
2022/05/24 10:20:30;;;;;;;2.30;0.55;;;14.30;1.40;;;15.78;100.00;94686.76;646515;216;31514;-75
2022/05/24 10:26:01;;;;;;;1.10;0.40;;;14.60;1.40;;;16.08;100.00;94690.13;647444;212;31480;-75
2022/05/24 10:28:49;;;;;;;0.50;0.37;;;14.60;1.40;;;15.80;100.00;94695.86;647558;216;42099;-76
2022/05/24 10:31:37;;;;;;;0.80;0.60;;;14.50;1.40;;;15.70;100.00;94692.54;645421;216;31574;-75
2022/05/24 10:39:12;;;;;;;0.60;0.40;;;14.50;1.40;;;15.71;100.00;94703.12;646822;212;31456;-75
2022/05/24 10:42:29;;;;;;;4.90;0.70;;;14.40;1.40;;;16.18;100.00;94703.84;646906;212;31493;-75
2022/05/24 10:45:17;;;;;;;0.70;0.50;;;14.90;1.40;;;16.29;100.00;94706.03;646384;216;31473;-75
2022/05/24 10:48:01;;;;;;;0.60;0.30;;;14.70;1.40;;;16.51;100.00;94709.16;646828;216;32223;-74
2022/05/24 10:50:45;;;;;;;0.40;0.30;;;14.80;1.40;;;16.46;100.00;94717.06;647457;216;31509;-74
2022/05/24 10:53:47;;;;;;;0.45;0.43;;;14.80;1.40;;;16.25;100.00;94721.72;645116;216;31493;-74
2022/05/24 10:56:37;;;;;;;0.40;0.40;;;14.60;1.40;;;16.14;100.00;94711.78;646944;216;32286;-74
2022/05/24 10:59:38;;;;;;;0.70;0.50;;;14.80;1.40;;;16.13;100.00;94710.92;646487;216;31772;-74
2022/05/24 11:02:35;;;;;;;0.60;0.60;;;14.80;1.40;;;15.98;100.00;94712.11;646270;216;42097;-74
2022/05/24 11:05:19;;;;;;;0.50;0.50;;;14.70;1.40;;;15.99;100.00;94709.73;646594;216;31494;-74
2022/05/24 11:08:30;;;;;;;0.60;0.40;;;14.70;1.40;;;16.05;100.00;94710.36;645175;216;31558;-74
2022/05/24 11:11:15;;;;;;;0.50;0.30;;;14.90;1.40;;;16.21;100.00;94716.59;646709;216;31548;-75
2022/05/24 11:14:10;;;;;;;0.70;0.60;;;14.90;1.40;;;16.22;100.00;94712.17;647560;216;32058;-74
2022/05/24 11:16:51;;;;;;;0.55;0.40;;;15.00;1.40;;;16.30;100.00;94711.62;619486;222;32094;-74
2022/05/24 11:19:35;;;;;;;0.40;0.30;;;15.00;1.40;;;15.96;100.00;94709.12;646389;216;31562;-74
2022/05/24 11:22:20;;;;;;;0.50;0.40;;;14.70;1.40;;;15.91;100.00;94709.00;646841;216;31470;-74
2022/05/24 11:25:16;;;;;;;1.48;0.40;;;14.60;1.40;;;15.83;100.00;94704.16;646329;216;31492;-74
2022/05/24 11:28:17;;;;;;;0.63;0.53;;;14.50;1.40;;;15.43;100.00;94713.10;646675;212;31574;-75
2022/05/24 11:31:00;;;;;;;0.70;0.70;;;14.10;1.40;;;15.34;100.00;94715.72;647629;216;31640;-74
2022/05/24 11:35:52;;;;;;;0.80;0.70;;;13.90;1.40;;;15.07;100.00;94720.95;646591;216;31484;-74
2022/05/24 11:38:36;;;;;;;0.50;0.30;;;13.90;1.40;;;15.23;100.00;94725.75;647009;212;31501;-74
2022/05/24 11:41:19;;;;;;;1.20;0.75;;;14.00;1.40;;;15.33;100.00;94725.92;645115;216;31643;-75
2022/05/24 11:44:01;;;;;;;0.55;0.43;;;14.10;1.40;;;15.22;100.00;94723.00;647314;212;31477;-75
2022/05/24 11:46:45;;;;;;;0.40;0.30;;;14.10;1.40;;;15.36;100.00;94719.77;618934;222;31798;-75
2022/05/24 11:49:56;;;;;;;0.60;0.60;;;14.30;1.40;;;15.23;100.00;94720.30;647585;212;31515;-75
2022/05/24 11:53:07;;;;;;;1.15;0.47;;;14.20;1.40;;;15.24;100.00;94736.36;645559;215;31509;-74
2022/05/24 11:56:12;;;;;;;0.40;0.30;;;14.10;1.40;;;13.78;100.00;94752.75;645934;212;31475;-73
2022/05/24 12:01:31;;;;;;;0.70;0.30;;;12.60;1.40;;;13.72;100.00;94764.28;618333;225;42510;-73
2022/05/24 12:10:41;;;;;;;0.40;0.30;;;12.40;1.40;;;13.49;100.00;94767.47;646710;212;31786;-73
2022/05/24 12:13:42;;;;;;;0.40;0.20;;;12.50;1.40;;;13.65;100.00;94773.98;618829;226;31841;-73
2022/05/24 12:16:33;;;;;;;0.40;0.30;;;12.60;1.40;;;13.74;100.00;94786.32;646644;216;40515;-74
2022/05/24 12:19:45;;;;;;;1.60;0.50;;;12.70;1.40;;;13.89;100.00;94790.36;647057;216;42110;-73
2022/05/24 12:23:46;;;;;;;0.70;0.70;;;12.90;1.40;;;14.05;100.00;94803.55;646924;216;31496;-73
2022/05/24 12:26:27;;;;;;;2.20;0.30;;;13.00;1.40;;;14.02;100.00;94805.56;646759;216;42314;-73
2022/05/24 12:29:09;;;;;;;0.40;0.20;;;12.90;1.40;;;14.08;100.00;94810.00;646561;216;31609;-73
2022/05/24 12:31:50;;;;;;;1.10;0.75;;;12.90;1.40;;;14.04;100.00;94811.84;646950;212;42203;-75
2022/05/24 12:35:52;;;;;;;0.60;0.40;;;12.80;1.40;;;13.97;100.00;94812.77;645622;212;32135;-73
2022/05/24 12:38:34;;;;;;;0.60;0.50;;;12.80;1.40;;;14.24;100.00;94808.14;646511;216;42683;-73
2022/05/24 12:41:21;;;;;;;0.40;0.30;;;13.00;1.40;;;14.44;100.00;94798.92;645555;216;31518;-74
2022/05/24 12:44:04;;;;;;;0.40;0.32;;;13.20;1.40;;;14.97;100.00;94782.41;647729;216;31462;-75
2022/05/24 12:46:52;;;;;;;0.73;0.50;;;13.50;1.40;;;15.38;100.00;94779.48;619880;222;31863;-75
2022/05/24 12:49:34;;;;;;;1.70;0.30;;;13.80;1.40;;;15.43;100.00;94782.93;646892;212;31476;-74
2022/05/24 12:52:15;;;;;;;0.40;0.30;;;13.70;1.40;;;15.73;100.00;94785.89;646007;216;31571;-75
2022/05/24 12:54:59;;;;;;;2.60;0.60;;;14.10;1.40;;;15.96;100.00;94786.14;647448;216;31476;-75
2022/05/24 12:57:40;;;;;;;0.90;0.35;;;14.00;1.40;;;15.93;100.00;94792.53;646806;216;31780;-74
2022/05/24 13:00:25;;;;;;;0.40;0.20;;;14.00;1.40;;;15.77;100.00;94796.35;646782;212;31476;-74
2022/05/24 13:03:08;;;;;;;1.30;1.08;;;13.90;1.40;;;15.48;100.00;94803.09;646026;212;32022;-75
2022/05/24 13:05:53;;;;;;;0.50;0.30;;;13.70;1.40;;;15.39;100.00;94804.80;645887;216;31544;-74
2022/05/24 13:08:33;;;;;;;0.70;0.40;;;13.60;1.40;;;15.12;100.00;94806.20;643365;216;31660;-74
2022/05/24 13:11:15;;;;;;;0.50;0.37;;;13.40;1.40;;;14.84;100.00;94802.27;647211;212;31484;-74
2022/05/24 13:13:56;;;;;;;0.40;0.40;;;13.30;1.40;;;15.14;100.00;94810.92;645546;212;31472;-73
2022/05/24 13:16:38;;;;;;;0.60;0.30;;;13.50;1.40;;;15.10;100.00;94809.87;646697;212;31459;-73
2022/05/24 13:19:20;;;;;;;0.40;0.30;;;13.40;1.40;;;15.19;100.00;94811.51;646721;215;31485;-73
2022/05/24 13:22:02;;;;;;;0.70;0.70;;;13.20;1.40;;;15.04;100.00;94810.36;645787;212;31466;-73
2022/05/24 13:24:50;;;;;;;1.20;0.40;;;13.20;1.40;;;15.00;100.00;94806.73;646402;216;31628;-74
2022/05/24 13:27:52;;;;;;;0.40;0.30;;;13.30;1.40;;;15.18;100.00;94799.71;647476;216;31557;-73
2022/05/24 13:35:53;;;;;;;0.70;0.30;;;13.70;1.40;;;16.01;100.00;94803.68;646947;216;31613;-73
2022/05/24 13:38:39;;;;;;;0.40;0.30;;;13.90;1.40;;;16.18;100.00;94805.76;646619;216;31477;-74
2022/05/24 13:41:25;;;;;;;1.30;0.30;;;14.10;1.40;;;16.54;100.00;94812.03;646762;216;31497;-74
2022/05/24 13:44:19;;;;;;;0.40;0.30;;;14.30;1.40;;;16.69;100.00;94825.52;645220;216;31446;-74
2022/05/24 13:47:04;;;;;;;0.50;0.30;;;14.40;1.40;;;16.38;100.00;94830.84;647098;212;31889;-73
2022/05/24 13:49:45;;;;;;;0.40;0.20;;;14.10;1.40;;;16.33;100.00;94826.64;646495;212;32334;-74
2022/05/24 13:52:31;;;;;;;1.00;0.30;;;14.00;1.40;;;16.41;100.00;94828.38;645791;212;31491;-74